Time;durP1;ratioP1;P1;durP2;ratioP2;P2;SDS_P1;SDS_P2;PMS_P1;PMS_P2;Temp;Humidity;BMP_temperature;BMP_pressure;BME280_temperature;BME280_humidity;BME280_pressure;Samples;Min_cycle;Max_cycle;Signal;HPM_P1;HPM_P2
2022/12/03 00:01:38;;;;;;;14.50;10.53;;;3.60;99.90;;;;;;5089216;28;20759;-30
2022/12/03 00:04:04;;;;;;;15.60;11.30;;;3.70;99.90;;;;;;5076991;28;20696;-30
2022/12/03 00:06:30;;;;;;;17.00;11.53;;;3.60;99.90;;;;;;5090712;28;20193;-30
2022/12/03 00:08:55;;;;;;;15.40;11.00;;;3.60;99.90;;;;;;5077172;28;20261;-30
2022/12/03 00:11:21;;;;;;;17.40;11.70;;;3.60;99.90;;;;;;5088079;28;20187;-30
2022/12/03 00:13:47;;;;;;;16.47;11.83;;;3.70;99.90;;;;;;5084052;28;20292;-30
2022/12/03 00:16:12;;;;;;;17.30;11.40;;;3.60;99.90;;;;;;5090470;28;20287;-30
2022/12/03 00:18:38;;;;;;;16.30;13.20;;;3.60;99.90;;;;;;5090382;28;21125;-30
2022/12/03 00:21:04;;;;;;;15.50;10.63;;;3.70;99.90;;;;;;5081177;28;20371;-30
2022/12/03 00:23:29;;;;;;;14.70;10.87;;;3.60;99.90;;;;;;5070249;28;20187;-30
2022/12/03 00:25:55;;;;;;;15.63;11.30;;;3.70;99.90;;;;;;5070942;28;20228;-30
2022/12/03 00:28:21;;;;;;;14.57;10.03;;;3.80;99.90;;;;;;5070414;28;20185;-30
2022/12/03 00:30:46;;;;;;;17.70;11.33;;;3.80;99.90;;;;;;5070102;28;20190;-30
2022/12/03 00:33:12;;;;;;;16.57;12.03;;;3.70;99.90;;;;;;5070366;28;20189;-30
2022/12/03 00:35:37;;;;;;;14.73;10.80;;;3.60;99.90;;;;;;5070577;28;20280;-30
2022/12/03 00:38:03;;;;;;;13.93;10.80;;;3.40;99.90;;;;;;5076300;28;20204;-30
2022/12/03 00:40:29;;;;;;;12.93;9.60;;;3.60;99.90;;;;;;5090280;28;20665;-30
2022/12/03 00:42:54;;;;;;;15.03;10.97;;;3.80;99.90;;;;;;5090125;28;20184;-30
2022/12/03 00:45:20;;;;;;;15.50;11.33;;;3.60;99.90;;;;;;5090244;28;20191;-30
2022/12/03 00:47:45;;;;;;;16.70;12.63;;;3.70;99.90;;;;;;5090213;28;20199;-30
2022/12/03 00:50:11;;;;;;;15.83;11.80;;;3.80;99.90;;;;;;5089918;28;20267;-30
2022/12/03 00:52:37;;;;;;;14.00;10.53;;;3.80;99.90;;;;;;5089919;28;20189;-30
2022/12/03 00:55:03;;;;;;;17.87;11.93;;;3.70;99.90;;;;;;5090141;28;20646;-30
2022/12/03 00:57:28;;;;;;;14.67;10.43;;;3.60;99.90;;;;;;5090149;28;20245;-30
2022/12/03 00:59:54;;;;;;;14.47;11.33;;;3.60;99.90;;;;;;5089856;28;20446;-30
2022/12/03 01:02:20;;;;;;;13.37;10.20;;;3.70;99.90;;;;;;5090227;28;20618;-30
2022/12/03 01:04:45;;;;;;;15.83;11.33;;;3.60;99.90;;;;;;5105542;28;20539;-30
2022/12/03 01:07:11;;;;;;;16.40;11.53;;;3.60;99.90;;;;;;5089775;28;20562;-30
2022/12/03 01:09:37;;;;;;;14.13;10.90;;;3.70;99.90;;;;;;5089881;28;20208;-30
2022/12/03 01:12:02;;;;;;;15.40;10.47;;;3.70;99.90;;;;;;5089715;28;20727;-30
2022/12/03 01:14:28;;;;;;;16.20;10.97;;;3.80;99.90;;;;;;5089216;28;20203;-30
2022/12/03 01:16:54;;;;;;;14.10;10.43;;;3.60;99.90;;;;;;5105273;28;20212;-30
2022/12/03 01:19:19;;;;;;;15.70;11.90;;;3.80;99.90;;;;;;5089556;28;20178;-30
2022/12/03 01:21:50;;;;;;;14.67;11.73;;;3.70;99.90;;;;;;5087857;28;20181;-30
2022/12/03 01:24:16;;;;;;;14.50;11.07;;;3.80;99.90;;;;;;5089502;28;20233;-30
2022/12/03 01:26:42;;;;;;;14.33;10.07;;;3.80;99.90;;;;;;5089335;28;20476;-30
2022/12/03 01:29:07;;;;;;;15.30;11.73;;;3.90;99.90;;;;;;5087641;28;20888;-30
2022/12/03 01:34:17;;;;;;;16.27;11.50;;;3.60;99.90;;;;;;5087687;28;20218;-30
2022/12/03 01:36:43;;;;;;;17.77;12.37;;;3.70;99.90;;;;;;5089272;28;20874;-30
2022/12/03 01:39:08;;;;;;;15.17;10.67;;;3.60;99.90;;;;;;5089427;28;20188;-30
2022/12/03 01:41:35;;;;;;;17.37;11.80;;;3.60;99.90;;;;;;5089083;28;20453;-30
2022/12/03 01:44:01;;;;;;;14.50;11.27;;;3.50;99.90;;;;;;5088766;28;20183;-30
2022/12/03 01:46:39;;;;;;;15.37;10.93;;;3.60;99.90;;;;;;5089391;28;20463;-30
2022/12/03 01:49:05;;;;;;;14.30;10.63;;;3.60;99.90;;;;;;5087285;28;20951;-30
2022/12/03 01:51:31;;;;;;;16.73;12.57;;;3.70;99.90;;;;;;5087823;28;20797;-30
2022/12/03 01:53:58;;;;;;;18.23;12.53;;;3.60;99.90;;;;;;5088318;28;20407;-30
2022/12/03 01:56:24;;;;;;;18.43;12.70;;;3.80;99.90;;;;;;5088681;28;20172;-30
2022/12/03 01:58:50;;;;;;;15.80;12.10;;;3.50;99.90;;;;;;5088291;28;20943;-30
2022/12/03 02:01:17;;;;;;;18.40;12.13;;;3.50;99.90;;;;;;5089181;28;20187;-30
2022/12/03 02:03:44;;;;;;;17.53;12.30;;;3.70;99.90;;;;;;5088511;28;20188;-30
2022/12/03 02:06:16;;;;;;;16.43;12.40;;;3.60;99.90;;;;;;5088980;28;20900;-30
2022/12/03 02:08:43;;;;;;;18.00;12.50;;;3.70;99.90;;;;;;5103634;28;20426;-30
2022/12/03 02:11:28;;;;;;;17.13;13.03;;;3.70;99.90;;;;;;5088820;28;20898;-30
2022/12/03 02:13:59;;;;;;;19.30;13.30;;;3.70;99.90;;;;;;5067995;28;20419;-30
2022/12/03 02:16:25;;;;;;;19.60;13.07;;;3.60;99.90;;;;;;5068306;28;20439;-30
2022/12/03 02:18:50;;;;;;;18.47;12.40;;;3.60;99.90;;;;;;5083277;28;20755;-30
2022/12/03 02:21:43;;;;;;;17.50;11.90;;;3.80;99.90;;;;;;5068279;28;20587;-30
2022/12/03 02:24:38;;;;;;;16.63;12.63;;;3.70;99.90;;;;;;5068277;28;20173;-30
2022/12/03 02:27:03;;;;;;;18.20;12.10;;;3.90;99.90;;;;;;5068218;28;20412;-30
2022/12/03 02:29:30;;;;;;;18.20;12.67;;;3.70;99.90;;;;;;5067684;28;20423;-30
2022/12/03 02:31:55;;;;;;;18.73;13.17;;;3.80;99.90;;;;;;5068013;28;20177;-30
2022/12/03 02:34:39;;;;;;;15.77;11.63;;;3.80;99.90;;;;;;5065529;28;20431;-30
2022/12/03 02:37:07;;;;;;;19.93;12.23;;;3.90;99.90;;;;;;5068071;28;20247;-30
2022/12/03 02:39:36;;;;;;;19.63;12.13;;;3.60;99.90;;;;;;5067832;28;20415;-30
2022/12/03 02:44:47;;;;;;;17.10;11.97;;;3.50;99.90;;;;;;5067840;28;20455;-30
2022/12/03 02:47:13;;;;;;;21.53;12.77;;;3.70;99.90;;;;;;5067881;28;20536;-30
2022/12/03 02:49:39;;;;;;;19.83;12.73;;;3.70;99.90;;;;;;5083024;28;20185;-30
2022/12/03 02:52:04;;;;;;;19.37;13.30;;;3.70;99.90;;;;;;5067668;28;20197;-30
2022/12/03 02:54:30;;;;;;;18.93;12.50;;;3.60;99.90;;;;;;5067493;28;20422;-30
2022/12/03 02:56:56;;;;;;;19.67;12.77;;;3.70;99.90;;;;;;5067861;28;20216;-30
2022/12/03 02:59:22;;;;;;;19.37;13.30;;;3.70;99.90;;;;;;5067683;28;20178;-30
2022/12/03 03:01:48;;;;;;;17.63;11.80;;;3.70;99.90;;;;;;5067867;28;20435;-30
2022/12/03 03:04:14;;;;;;;19.50;12.10;;;3.50;99.90;;;;;;5067574;28;20552;-30
2022/12/03 03:06:40;;;;;;;22.33;13.20;;;3.70;99.90;;;;;;5067880;28;20424;-30
2022/12/03 03:09:06;;;;;;;19.23;12.13;;;3.70;99.90;;;;;;5066923;28;20414;-30
2022/12/03 03:11:32;;;;;;;21.63;13.70;;;3.60;99.90;;;;;;5068320;28;20251;-30
2022/12/03 03:13:59;;;;;;;20.93;11.73;;;3.70;99.90;;;;;;5087230;28;20967;-30
2022/12/03 03:16:26;;;;;;;17.87;12.07;;;3.70;99.90;;;;;;5087704;28;20472;-30
2022/12/03 03:19:06;;;;;;;18.80;12.70;;;3.60;99.90;;;;;;5053370;28;20457;-30
2022/12/03 03:21:32;;;;;;;24.50;14.13;;;3.70;99.90;;;;;;5087684;28;20422;-30
2022/12/03 03:23:58;;;;;;;20.50;12.27;;;3.60;99.90;;;;;;5087476;28;20176;-30
2022/12/03 03:26:24;;;;;;;23.40;12.70;;;3.70;99.90;;;;;;5087943;28;20423;-30
2022/12/03 03:28:50;;;;;;;23.70;14.43;;;3.60;99.90;;;;;;5087248;28;20180;-30
2022/12/03 03:31:21;;;;;;;20.33;12.80;;;3.60;99.90;;;;;;5087869;28;20419;-30
2022/12/03 03:33:48;;;;;;;21.60;13.27;;;3.70;99.90;;;;;;5089328;28;20417;-30
2022/12/03 03:36:15;;;;;;;22.33;12.43;;;3.50;99.90;;;;;;5090337;28;20440;-30
2022/12/03 03:38:41;;;;;;;22.73;13.93;;;3.60;99.90;;;;;;5091270;28;20422;-30
2022/12/03 03:41:09;;;;;;;20.20;11.77;;;3.50;99.90;;;;;;5090240;28;20414;-30
2022/12/03 03:43:36;;;;;;;25.90;13.77;;;3.60;99.90;;;;;;5091241;28;20169;-30
2022/12/03 03:46:06;;;;;;;21.93;12.70;;;3.60;99.90;;;;;;5091479;28;20425;-30
2022/12/03 03:48:34;;;;;;;23.13;12.37;;;3.60;99.90;;;;;;5090942;28;20445;-30
2022/12/03 03:51:02;;;;;;;23.30;13.53;;;3.30;99.90;;;;;;5091435;28;20518;-30
2022/12/03 03:53:29;;;;;;;21.20;12.90;;;3.40;99.90;;;;;;5091217;28;20406;-30
2022/12/03 03:55:55;;;;;;;22.00;12.30;;;3.60;99.90;;;;;;5089716;28;20824;-30
2022/12/03 03:58:21;;;;;;;24.40;13.13;;;3.30;99.90;;;;;;5091219;28;20450;-30
2022/12/03 04:00:46;;;;;;;19.80;13.00;;;3.50;99.90;;;;;;5091077;28;20175;-30
2022/12/03 04:03:13;;;;;;;23.63;12.47;;;3.50;99.90;;;;;;5090622;28;20422;-30
2022/12/03 04:05:38;;;;;;;23.47;12.80;;;3.60;99.90;;;;;;5091190;28;20413;-30
2022/12/03 04:08:04;;;;;;;22.93;13.80;;;3.50;99.90;;;;;;5091011;28;20415;-30
2022/12/03 04:13:14;;;;;;;25.60;13.50;;;3.70;99.90;;;;;;5090658;28;20422;-30
2022/12/03 04:15:40;;;;;;;24.97;13.10;;;3.40;99.90;;;;;;5090465;28;20418;-30
2022/12/03 04:20:50;;;;;;;20.70;12.27;;;3.40;99.90;;;;;;5090860;28;20211;-30
2022/12/03 04:23:15;;;;;;;21.47;12.10;;;3.50;99.90;;;;;;5090843;28;20821;-30
2022/12/03 04:28:48;;;;;;;23.57;12.30;;;3.50;99.90;;;;;;5051955;28;20465;-30
2022/12/03 04:36:42;;;;;;;20.20;12.17;;;3.60;99.90;;;;;;5090358;28;20458;-30
2022/12/03 04:39:08;;;;;;;27.60;14.37;;;3.70;99.90;;;;;;5090297;28;20421;-30
2022/12/03 04:41:33;;;;;;;23.20;13.20;;;3.60;99.90;;;;;;5090865;28;20263;-30
2022/12/03 04:46:43;;;;;;;23.50;12.07;;;3.50;99.90;;;;;;5090409;28;20180;-30
2022/12/03 04:49:09;;;;;;;27.27;14.70;;;3.60;99.90;;;;;;5090120;28;20852;-30
2022/12/03 04:51:34;;;;;;;25.50;12.60;;;3.40;99.90;;;;;;5090617;28;20326;-30
2022/12/03 04:54:00;;;;;;;23.80;13.17;;;3.50;99.90;;;;;;5089854;28;20275;-30
2022/12/03 04:56:26;;;;;;;26.20;13.73;;;3.10;99.90;;;;;;5090543;28;20273;-30
2022/12/03 04:58:51;;;;;;;25.30;12.63;;;3.40;99.90;;;;;;5089771;28;20173;-30
2022/12/03 05:01:17;;;;;;;21.83;12.87;;;3.20;99.90;;;;;;5105916;28;20234;-30
2022/12/03 05:03:43;;;;;;;28.10;14.53;;;3.30;99.90;;;;;;5089316;28;20173;-30
2022/12/03 05:06:08;;;;;;;20.27;12.17;;;3.20;99.90;;;;;;5088666;28;20180;-30
2022/12/03 05:08:34;;;;;;;21.13;12.77;;;3.40;99.90;;;;;;5089653;28;20254;-30
2022/12/03 05:10:59;;;;;;;22.80;12.63;;;3.40;99.90;;;;;;5089840;28;20718;-30
2022/12/03 05:13:25;;;;;;;26.80;14.30;;;3.60;99.90;;;;;;5089586;28;20453;-30
2022/12/03 05:15:50;;;;;;;20.90;11.93;;;3.20;99.90;;;;;;5089597;28;20188;-30
2022/12/03 05:18:16;;;;;;;25.47;12.83;;;3.50;99.90;;;;;;5089802;28;20758;-30
2022/12/03 05:20:42;;;;;;;25.03;13.30;;;3.50;99.90;;;;;;5089217;28;20283;-30
2022/12/03 05:23:12;;;;;;;27.97;13.27;;;3.40;99.90;;;;;;5104909;28;20259;-30
2022/12/03 05:25:41;;;;;;;23.70;13.47;;;3.40;99.90;;;;;;5089610;28;20172;-30
2022/12/03 05:28:07;;;;;;;20.47;12.60;;;3.20;99.90;;;;;;5089555;28;20410;-30
2022/12/03 05:30:33;;;;;;;20.37;11.77;;;3.50;99.90;;;;;;5088877;28;20422;-30
2022/12/03 05:32:58;;;;;;;24.17;14.60;;;3.20;99.90;;;;;;5087612;28;20422;-30
2022/12/03 05:35:24;;;;;;;21.27;12.97;;;3.20;99.90;;;;;;5087772;28;20470;-30
2022/12/03 05:37:50;;;;;;;24.03;12.67;;;3.30;99.90;;;;;;5089445;28;20640;-30
2022/12/03 05:40:16;;;;;;;28.87;14.33;;;3.30;99.90;;;;;;5089094;28;20522;-30
2022/12/03 05:42:55;;;;;;;24.77;13.50;;;3.30;99.90;;;;;;5089294;28;20585;-30
2022/12/03 05:45:34;;;;;;;25.97;14.03;;;3.10;99.90;;;;;;5087727;28;20436;-30
2022/12/03 05:48:00;;;;;;;28.63;13.40;;;3.40;99.90;;;;;;5089167;28;20418;-30
2022/12/03 05:50:29;;;;;;;24.53;13.43;;;3.30;99.90;;;;;;5087729;28;20466;-30
2022/12/03 05:52:55;;;;;;;23.90;12.30;;;3.50;99.90;;;;;;5088540;28;20422;-29
2022/12/03 05:55:21;;;;;;;21.37;11.80;;;3.20;99.90;;;;;;5086906;28;21105;-30
2022/12/03 05:57:47;;;;;;;20.93;12.97;;;3.30;99.90;;;;;;5088415;28;20458;-30
2022/12/03 06:00:22;;;;;;;26.60;13.20;;;3.50;99.90;;;;;;5088656;28;20180;-30
2022/12/03 06:02:48;;;;;;;25.57;12.40;;;3.40;99.90;;;;;;5088396;28;20172;-30
2022/12/03 06:05:15;;;;;;;25.07;12.37;;;3.40;99.90;;;;;;5089043;28;20567;-30
2022/12/03 06:07:42;;;;;;;21.90;13.70;;;3.40;99.90;;;;;;5089032;28;20187;-30
2022/12/03 06:10:10;;;;;;;26.33;14.77;;;3.30;99.90;;;;;;5088893;28;20702;-30
2022/12/03 06:12:36;;;;;;;25.93;14.20;;;3.10;99.90;;;;;;5088423;28;20427;-30
2022/12/03 06:15:02;;;;;;;28.70;14.43;;;3.30;99.90;;;;;;5088621;28;20780;-30
2022/12/03 06:17:28;;;;;;;24.20;14.20;;;3.30;99.90;;;;;;5088628;28;20294;-30
2022/12/03 06:19:53;;;;;;;23.53;12.30;;;3.20;99.90;;;;;;5088146;28;20856;-30
2022/12/03 06:22:19;;;;;;;21.50;13.00;;;3.30;99.90;;;;;;5104164;28;20172;-30
2022/12/03 06:24:45;;;;;;;28.27;14.90;;;3.40;99.90;;;;;;5088213;28;20997;-30
2022/12/03 06:27:11;;;;;;;25.90;12.30;;;3.20;99.90;;;;;;5088433;28;20172;-30
2022/12/03 06:29:37;;;;;;;24.60;12.97;;;3.10;99.90;;;;;;5088320;28;20650;-30
2022/12/03 06:32:03;;;;;;;24.60;12.07;;;3.10;99.90;;;;;;5088392;28;20479;-30
2022/12/03 06:34:30;;;;;;;24.30;13.33;;;3.40;99.90;;;;;;5086383;28;20419;-30
2022/12/03 06:36:55;;;;;;;25.57;13.57;;;3.30;99.90;;;;;;5086869;28;20549;-30
2022/12/03 06:39:21;;;;;;;28.70;14.57;;;3.20;99.90;;;;;;5087651;28;20814;-30
2022/12/03 06:41:47;;;;;;;21.00;12.53;;;3.30;99.90;;;;;;5088439;28;20263;-30
2022/12/03 06:44:12;;;;;;;23.73;14.00;;;3.40;99.90;;;;;;5088150;28;20180;-30
2022/12/03 06:46:38;;;;;;;23.50;12.17;;;3.30;99.90;;;;;;5088456;28;20749;-30
2022/12/03 06:49:04;;;;;;;23.70;12.77;;;3.10;99.90;;;;;;5088075;28;20508;-30
2022/12/03 06:51:30;;;;;;;24.97;12.80;;;3.30;99.90;;;;;;5088060;28;20181;-30
2022/12/03 06:53:55;;;;;;;23.67;12.53;;;3.20;99.90;;;;;;5087979;28;20410;-30
2022/12/03 06:56:21;;;;;;;23.83;13.73;;;3.40;99.90;;;;;;5087701;28;20191;-30
2022/12/03 06:58:47;;;;;;;22.93;12.83;;;3.50;99.90;;;;;;5087849;28;20729;-30
2022/12/03 07:01:12;;;;;;;25.07;12.97;;;3.10;99.90;;;;;;5088246;28;20188;-30
2022/12/03 07:03:38;;;;;;;22.80;12.40;;;3.30;99.90;;;;;;5087697;28;20329;-30
2022/12/03 07:06:04;;;;;;;24.60;13.50;;;3.30;99.90;;;;;;5087802;28;20177;-30
2022/12/03 07:08:29;;;;;;;27.17;14.30;;;3.10;99.90;;;;;;5087520;28;20184;-30
2022/12/03 07:10:55;;;;;;;26.20;12.90;;;3.10;99.90;;;;;;5088136;28;20501;-30
2022/12/03 07:13:21;;;;;;;26.17;13.73;;;3.30;99.90;;;;;;5087832;28;20184;-30
2022/12/03 07:15:46;;;;;;;29.70;14.60;;;3.10;99.90;;;;;;5087913;28;20226;-30
2022/12/03 07:18:12;;;;;;;25.53;13.03;;;3.40;99.90;;;;;;5087698;28;20224;-30
2022/12/03 07:20:38;;;;;;;23.50;12.63;;;3.10;99.90;;;;;;5087535;28;20204;-30
2022/12/03 07:23:03;;;;;;;22.70;13.90;;;3.20;99.90;;;;;;5087356;28;20181;-30
2022/12/03 07:25:29;;;;;;;24.30;13.07;;;3.10;99.90;;;;;;5088108;28;20461;-30
2022/12/03 07:27:55;;;;;;;23.83;13.17;;;3.00;99.90;;;;;;5087950;28;20179;-30
2022/12/03 07:30:22;;;;;;;25.03;13.50;;;3.20;99.90;;;;;;5087455;28;20743;-30
2022/12/03 07:32:48;;;;;;;25.00;14.10;;;3.20;99.90;;;;;;5087290;28;20241;-30
2022/12/03 07:35:13;;;;;;;25.20;13.47;;;3.00;99.90;;;;;;5086635;28;21059;-30
2022/12/03 07:37:39;;;;;;;28.40;14.43;;;3.30;99.90;;;;;;5102738;28;20201;-30
2022/12/03 07:40:05;;;;;;;27.90;13.23;;;3.00;99.90;;;;;;5087373;28;20560;-30
2022/12/03 07:42:31;;;;;;;29.17;14.70;;;3.00;99.90;;;;;;5087342;28;20180;-30
2022/12/03 07:44:57;;;;;;;24.97;13.13;;;3.00;99.90;;;;;;5087522;28;20981;-30
2022/12/03 07:47:22;;;;;;;24.70;13.27;;;3.20;99.90;;;;;;5087725;28;20655;-30
2022/12/03 07:49:48;;;;;;;23.70;13.70;;;3.20;99.90;;;;;;5087288;28;20246;-30
2022/12/03 07:52:14;;;;;;;28.40;13.53;;;3.10;99.90;;;;;;5087402;28;20271;-30
2022/12/03 07:54:39;;;;;;;25.47;13.80;;;3.20;99.90;;;;;;5085654;28;20234;-30
2022/12/03 07:57:06;;;;;;;21.47;12.33;;;3.00;99.90;;;;;;5087606;28;20212;-30
2022/12/03 07:59:31;;;;;;;27.37;13.60;;;3.20;99.90;;;;;;5086896;28;20184;-30
2022/12/03 08:01:57;;;;;;;27.83;15.50;;;3.00;99.90;;;;;;5087524;28;20399;-30
2022/12/03 08:04:23;;;;;;;22.13;12.90;;;3.00;99.90;;;;;;5102630;28;20905;-30
2022/12/03 08:06:48;;;;;;;27.60;15.23;;;3.20;99.90;;;;;;5087219;28;20279;-30
2022/12/03 08:09:14;;;;;;;28.10;14.27;;;3.20;99.90;;;;;;5086699;28;20188;-30
2022/12/03 08:11:40;;;;;;;25.07;13.50;;;3.00;99.90;;;;;;5087473;28;20185;-30
2022/12/03 08:14:13;;;;;;;22.03;13.37;;;3.10;99.90;;;;;;5087111;28;20168;-30
2022/12/03 08:16:40;;;;;;;26.40;13.70;;;3.00;99.90;;;;;;5087137;28;20621;-30
2022/12/03 08:19:11;;;;;;;24.67;13.43;;;3.10;99.90;;;;;;5088830;28;20475;-30
2022/12/03 08:21:37;;;;;;;25.80;14.07;;;3.00;99.90;;;;;;5090523;28;20410;-30
2022/12/03 08:24:19;;;;;;;26.10;13.07;;;3.10;99.90;;;;;;5089095;28;20407;-30
2022/12/03 08:26:46;;;;;;;27.17;13.03;;;3.20;99.90;;;;;;5090718;28;20795;-30
2022/12/03 08:29:15;;;;;;;25.13;14.97;;;3.10;99.90;;;;;;5090197;28;20460;-30
2022/12/03 08:31:41;;;;;;;20.23;12.97;;;3.10;99.90;;;;;;5090579;28;20413;-30
2022/12/03 08:34:32;;;;;;;21.57;13.23;;;3.20;99.90;;;;;;5088444;28;20904;-30
2022/12/03 08:37:04;;;;;;;26.17;14.57;;;3.00;99.90;;;;;;5083960;28;20996;-30
2022/12/03 08:39:36;;;;;;;22.47;13.00;;;3.30;99.90;;;;;;5090391;28;20414;-30
2022/12/03 08:45:26;;;;;;;24.27;13.80;;;3.20;99.90;;;;;;5090664;28;20421;-30
2022/12/03 08:47:54;;;;;;;24.63;13.40;;;3.20;99.90;;;;;;5090424;28;20440;-30
2022/12/03 08:50:27;;;;;;;22.57;13.13;;;3.10;99.90;;;;;;5089967;28;20433;-30
2022/12/03 08:52:59;;;;;;;24.47;14.50;;;3.30;99.90;;;;;;5088194;28;20426;-30
2022/12/03 08:55:33;;;;;;;27.30;15.07;;;3.10;99.90;;;;;;5090503;28;20427;-30
2022/12/03 08:57:59;;;;;;;24.97;14.03;;;3.30;99.90;;;;;;5089971;28;20457;-30
2022/12/03 09:00:25;;;;;;;26.87;13.80;;;3.20;99.90;;;;;;5089825;28;20598;-30
2022/12/03 09:02:53;;;;;;;23.00;13.20;;;3.30;99.90;;;;;;5089617;28;20563;-30
2022/12/03 09:05:28;;;;;;;26.27;14.77;;;3.20;99.90;;;;;;5090329;28;20406;-30
2022/12/03 09:07:53;;;;;;;28.07;14.70;;;3.40;99.90;;;;;;5089822;28;20506;-30
2022/12/03 09:10:19;;;;;;;25.30;15.40;;;3.30;99.90;;;;;;5089748;28;21004;-30
2022/12/03 09:12:45;;;;;;;26.27;14.70;;;3.30;99.90;;;;;;5089875;28;20192;-30
2022/12/03 09:15:10;;;;;;;30.87;15.73;;;3.00;99.90;;;;;;5089931;28;20213;-30
2022/12/03 09:17:36;;;;;;;26.50;15.07;;;3.10;99.90;;;;;;5089647;28;20697;-30
2022/12/03 09:20:03;;;;;;;23.97;13.20;;;3.00;99.90;;;;;;5089418;28;20445;-30
2022/12/03 09:22:29;;;;;;;26.97;14.07;;;3.30;99.90;;;;;;5089447;28;20172;-30
2022/12/03 09:24:55;;;;;;;29.83;15.13;;;3.20;99.90;;;;;;5089513;28;20468;-30
2022/12/03 09:27:21;;;;;;;25.57;14.70;;;3.30;99.90;;;;;;5089566;28;20180;-30
2022/12/03 09:29:48;;;;;;;27.60;14.63;;;3.10;99.90;;;;;;5089533;28;20173;-30
2022/12/03 09:32:13;;;;;;;25.10;14.00;;;3.30;99.90;;;;;;5089371;28;20548;-30
2022/12/03 09:34:39;;;;;;;27.17;14.93;;;3.30;99.90;;;;;;5087445;28;20427;-30
2022/12/03 09:37:04;;;;;;;26.23;15.10;;;3.10;99.90;;;;;;5089555;28;20207;-30
2022/12/03 09:39:30;;;;;;;28.30;13.87;;;3.30;99.90;;;;;;5087625;28;20539;-30
2022/12/03 09:41:56;;;;;;;26.43;15.20;;;3.40;99.90;;;;;;5089654;28;20192;-30
2022/12/03 09:44:21;;;;;;;27.27;14.80;;;3.30;99.90;;;;;;5087441;28;20176;-30
2022/12/03 09:46:48;;;;;;;32.90;16.07;;;3.10;99.90;;;;;;5089045;28;20177;-30
2022/12/03 09:49:16;;;;;;;24.77;14.07;;;3.60;99.90;;;;;;5088633;28;20196;-30
2022/12/03 09:51:43;;;;;;;23.33;13.77;;;3.50;99.90;;;;;;5089065;28;20564;-30
2022/12/03 09:54:15;;;;;;;27.00;15.67;;;3.40;99.90;;;;;;5088904;28;20422;-30
2022/12/03 09:56:41;;;;;;;28.07;14.87;;;3.50;99.90;;;;;;5089322;28;20430;-30
2022/12/03 09:59:13;;;;;;;24.23;14.20;;;3.30;99.90;;;;;;5088582;28;20412;-30
2022/12/03 10:01:38;;;;;;;25.10;14.23;;;3.40;99.90;;;;;;5087264;28;20263;-30
2022/12/03 10:04:04;;;;;;;28.67;17.43;;;3.50;99.90;;;;;;5088689;28;20489;-30
2022/12/03 10:06:30;;;;;;;24.30;14.50;;;3.50;99.90;;;;;;5088915;28;20180;-30
2022/12/03 10:08:58;;;;;;;30.00;16.00;;;3.50;99.90;;;;;;5088407;28;20411;-30
2022/12/03 10:11:25;;;;;;;24.13;14.80;;;3.60;99.90;;;;;;5088702;28;20609;-30
2022/12/03 10:13:54;;;;;;;25.90;14.10;;;3.50;99.90;;;;;;5088445;28;20472;-30
2022/12/03 10:16:20;;;;;;;24.27;14.03;;;3.70;99.90;;;;;;5088593;28;20821;-30
2022/12/03 10:18:53;;;;;;;24.70;14.83;;;3.40;99.90;;;;;;5088110;28;20554;-30
2022/12/03 10:21:29;;;;;;;25.40;13.87;;;3.70;99.90;;;;;;5088740;28;20444;-30
2022/12/03 10:24:16;;;;;;;24.53;13.50;;;3.50;99.90;;;;;;5088307;28;20405;-30
2022/12/03 10:26:43;;;;;;;23.03;15.30;;;3.70;99.90;;;;;;5088374;28;20411;-30
2022/12/03 10:29:16;;;;;;;24.20;15.00;;;3.40;99.90;;;;;;5088105;28;20411;-30
2022/12/03 10:31:42;;;;;;;26.00;14.73;;;3.30;99.90;;;;;;5088403;28;20429;-30
2022/12/03 10:34:11;;;;;;;25.53;14.87;;;3.30;99.90;;;;;;5086592;28;20406;-30
2022/12/03 10:36:36;;;;;;;24.93;14.17;;;3.40;99.90;;;;;;5088412;28;20176;-30
2022/12/03 10:39:05;;;;;;;28.80;14.77;;;3.50;99.90;;;;;;5087407;28;20446;-30
2022/12/03 10:41:31;;;;;;;24.57;15.20;;;3.40;99.90;;;;;;5087884;28;20181;-30
2022/12/03 10:44:11;;;;;;;24.47;14.67;;;3.50;99.90;;;;;;5088126;28;20421;-30
2022/12/03 10:46:36;;;;;;;22.67;12.70;;;3.60;99.90;;;;;;5088343;28;20172;-30
2022/12/03 10:49:17;;;;;;;25.07;13.90;;;3.50;99.90;;;;;;5088035;28;20890;-30
2022/12/03 10:51:47;;;;;;;29.50;15.40;;;3.60;99.90;;;;;;5088111;28;20184;-30
2022/12/03 10:54:20;;;;;;;28.37;15.77;;;3.40;99.90;;;;;;5087600;28;20809;-30
2022/12/03 10:56:48;;;;;;;26.23;14.87;;;3.70;99.90;;;;;;5088055;28;20453;-30
2022/12/03 10:59:17;;;;;;;22.80;14.10;;;3.60;99.90;;;;;;5087510;28;20403;-30
2022/12/03 11:01:43;;;;;;;25.47;14.30;;;3.40;99.90;;;;;;5088068;28;20411;-30
2022/12/03 11:04:34;;;;;;;28.10;15.13;;;3.70;99.90;;;;;;5087527;28;20707;-30
2022/12/03 11:07:16;;;;;;;25.13;13.50;;;3.60;99.90;;;;;;5088027;28;20419;-30
2022/12/03 11:09:44;;;;;;;27.60;15.50;;;3.50;99.90;;;;;;5087310;28;20429;-30
2022/12/03 11:12:36;;;;;;;26.10;14.83;;;3.60;99.90;;;;;;5087889;28;20488;-30
2022/12/03 11:15:05;;;;;;;28.27;15.30;;;3.50;99.90;;;;;;5085481;28;20830;-30
2022/12/03 11:17:47;;;;;;;25.83;14.67;;;3.70;99.90;;;;;;5087974;28;20462;-30
2022/12/03 11:20:13;;;;;;;24.83;15.43;;;3.60;99.90;;;;;;5087533;28;20406;-30
2022/12/03 11:22:42;;;;;;;26.67;16.07;;;3.60;99.90;;;;;;5087910;28;20418;-30
2022/12/03 11:25:26;;;;;;;23.83;14.70;;;3.60;99.90;;;;;;5087889;28;20271;-30
2022/12/03 11:28:10;;;;;;;23.20;14.50;;;3.60;99.90;;;;;;5087724;28;20422;-30
2022/12/03 11:30:47;;;;;;;22.83;13.63;;;3.60;99.90;;;;;;5087419;28;20471;-30
2022/12/03 11:33:26;;;;;;;28.20;15.63;;;3.70;99.90;;;;;;5086986;28;20900;-30
2022/12/03 11:36:04;;;;;;;25.43;14.40;;;3.60;99.90;;;;;;5087766;28;20471;-30
2022/12/03 11:38:44;;;;;;;26.33;15.47;;;3.60;99.90;;;;;;5087299;28;20493;-30
2022/12/03 11:41:10;;;;;;;24.63;14.10;;;3.60;99.90;;;;;;5087748;28;20426;-30
2022/12/03 11:43:51;;;;;;;23.27;13.67;;;3.70;99.90;;;;;;5087097;28;20402;-30
2022/12/03 11:46:34;;;;;;;27.00;15.33;;;3.70;99.90;;;;;;5086281;28;20214;-30
2022/12/03 11:49:01;;;;;;;24.27;14.10;;;3.70;99.90;;;;;;5087543;28;20403;-30
2022/12/03 11:51:28;;;;;;;27.13;14.53;;;3.70;99.90;;;;;;5087796;28;20407;-30
2022/12/03 11:53:57;;;;;;;27.37;15.80;;;3.60;99.90;;;;;;5088644;28;20449;-30
2022/12/03 11:56:28;;;;;;;25.43;15.80;;;3.60;99.90;;;;;;5091083;28;20668;-30
2022/12/03 11:59:02;;;;;;;25.70;15.50;;;3.70;99.90;;;;;;5090634;28;20454;-30
2022/12/03 12:01:33;;;;;;;24.90;13.83;;;3.70;99.90;;;;;;5091873;28;20426;-30
2022/12/03 12:03:59;;;;;;;24.43;14.73;;;3.50;99.90;;;;;;5090833;28;20437;-30
2022/12/03 12:06:25;;;;;;;24.30;13.80;;;3.70;99.90;;;;;;5091742;28;20414;-30
2022/12/03 12:08:50;;;;;;;26.40;16.07;;;3.70;99.90;;;;;;5090571;28;20192;-30
2022/12/03 12:11:25;;;;;;;25.40;15.30;;;3.80;99.90;;;;;;5091273;28;20184;-30
2022/12/03 12:14:04;;;;;;;25.40;16.20;;;3.80;99.90;;;;;;5070540;28;20287;-30
2022/12/03 12:16:50;;;;;;;21.60;15.40;;;3.60;99.90;;;;;;5070730;28;20430;-30
2022/12/03 12:19:35;;;;;;;27.57;15.23;;;3.60;99.90;;;;;;5070386;28;20518;-30
2022/12/03 12:22:14;;;;;;;27.53;15.47;;;3.70;99.90;;;;;;5070955;28;20439;-30
2022/12/03 12:24:41;;;;;;;25.90;14.67;;;3.70;99.90;;;;;;5070284;28;20411;-30
2022/12/03 12:27:30;;;;;;;25.37;15.70;;;3.70;99.90;;;;;;5070614;28;20404;-30
2022/12/03 12:30:00;;;;;;;25.20;14.50;;;3.80;99.90;;;;;;5064120;28;20497;-30
2022/12/03 12:32:28;;;;;;;24.73;14.80;;;3.70;99.90;;;;;;5086065;28;20416;-30
2022/12/03 12:35:02;;;;;;;26.17;14.70;;;3.70;99.90;;;;;;5069274;28;20441;-30
2022/12/03 12:37:42;;;;;;;29.50;16.20;;;3.60;99.90;;;;;;5069419;28;20455;-30
2022/12/03 12:40:14;;;;;;;26.83;15.90;;;3.60;99.90;;;;;;5070046;28;20454;-30
2022/12/03 12:42:53;;;;;;;28.50;15.30;;;3.50;99.90;;;;;;5069955;28;20419;-30
2022/12/03 12:45:32;;;;;;;27.97;17.17;;;3.60;99.90;;;;;;5070610;28;20407;-30
2022/12/03 12:48:20;;;;;;;25.87;15.13;;;3.60;99.90;;;;;;5070090;28;20439;-30
2022/12/03 12:50:49;;;;;;;28.60;15.43;;;3.60;99.90;;;;;;5069949;28;20424;-30
2022/12/03 12:53:23;;;;;;;29.53;15.37;;;3.70;99.90;;;;;;5069949;28;20484;-30
2022/12/03 12:55:57;;;;;;;22.20;14.20;;;3.60;99.90;;;;;;5069983;28;20517;-30
2022/12/03 12:58:24;;;;;;;25.40;15.37;;;3.60;99.90;;;;;;5069947;28;20447;-30
2022/12/03 13:00:53;;;;;;;25.27;14.73;;;3.70;99.90;;;;;;5069751;28;20443;-30
2022/12/03 13:03:21;;;;;;;30.73;16.13;;;3.60;99.90;;;;;;5069647;28;20956;-30
2022/12/03 13:05:49;;;;;;;26.17;14.67;;;3.60;99.90;;;;;;5069748;28;20822;-30
2022/12/03 13:08:31;;;;;;;30.80;15.53;;;3.50;99.90;;;;;;5069619;28;20423;-30